sensor_id;sensor_type;location;lat;lon;timestamp;P1;durP1;ratioP1;P2;durP2;ratioP2
17564;SDS011;62994;52.126;5.596;2023-06-10T00:02:05;6.72;;;4.55;;
17564;SDS011;62994;52.126;5.596;2023-06-10T00:04:33;4.53;;;4.22;;
17564;SDS011;62994;52.126;5.596;2023-06-10T00:07:01;4.90;;;4.45;;
17564;SDS011;62994;52.126;5.596;2023-06-10T00:09:33;5.18;;;4.50;;
17564;SDS011;62994;52.126;5.596;2023-06-10T00:12:03;5.20;;;4.65;;
17564;SDS011;62994;52.126;5.596;2023-06-10T00:14:31;5.00;;;4.60;;
17564;SDS011;62994;52.126;5.596;2023-06-10T00:16:59;5.10;;;4.55;;
17564;SDS011;62994;52.126;5.596;2023-06-10T00:19:26;6.18;;;4.45;;
17564;SDS011;62994;52.126;5.596;2023-06-10T00:21:55;5.13;;;4.72;;
17564;SDS011;62994;52.126;5.596;2023-06-10T00:24:23;6.15;;;4.82;;
17564;SDS011;62994;52.126;5.596;2023-06-10T00:26:50;5.30;;;4.65;;
17564;SDS011;62994;52.126;5.596;2023-06-10T00:29:18;4.95;;;4.30;;
17564;SDS011;62994;52.126;5.596;2023-06-10T00:31:45;5.55;;;4.63;;
17564;SDS011;62994;52.126;5.596;2023-06-10T00:34:12;4.75;;;4.30;;
17564;SDS011;62994;52.126;5.596;2023-06-10T00:36:39;4.80;;;4.50;;
17564;SDS011;62994;52.126;5.596;2023-06-10T00:39:08;4.68;;;4.38;;
17564;SDS011;62994;52.126;5.596;2023-06-10T00:41:35;4.63;;;4.22;;
17564;SDS011;62994;52.126;5.596;2023-06-10T00:44:02;5.60;;;4.43;;
17564;SDS011;62994;52.126;5.596;2023-06-10T00:46:31;6.07;;;4.40;;
17564;SDS011;62994;52.126;5.596;2023-06-10T00:48:58;4.78;;;4.30;;
17564;SDS011;62994;52.126;5.596;2023-06-10T00:51:26;4.65;;;4.20;;
17564;SDS011;62994;52.126;5.596;2023-06-10T00:53:53;6.53;;;4.50;;
17564;SDS011;62994;52.126;5.596;2023-06-10T00:56:21;5.07;;;4.68;;
17564;SDS011;62994;52.126;5.596;2023-06-10T00:58:48;5.20;;;4.28;;
17564;SDS011;62994;52.126;5.596;2023-06-10T01:01:16;5.00;;;4.45;;
17564;SDS011;62994;52.126;5.596;2023-06-10T01:03:46;4.78;;;4.32;;
17564;SDS011;62994;52.126;5.596;2023-06-10T01:06:15;4.82;;;4.43;;
17564;SDS011;62994;52.126;5.596;2023-06-10T01:08:53;4.65;;;4.35;;
17564;SDS011;62994;52.126;5.596;2023-06-10T01:11:28;6.70;;;4.18;;
17564;SDS011;62994;52.126;5.596;2023-06-10T01:14:00;4.82;;;4.30;;
17564;SDS011;62994;52.126;5.596;2023-06-10T01:16:28;4.63;;;4.32;;
17564;SDS011;62994;52.126;5.596;2023-06-10T01:18:57;5.25;;;4.30;;
17564;SDS011;62994;52.126;5.596;2023-06-10T01:21:26;5.15;;;4.43;;
17564;SDS011;62994;52.126;5.596;2023-06-10T01:23:53;5.07;;;4.50;;
17564;SDS011;62994;52.126;5.596;2023-06-10T01:26:25;4.88;;;4.50;;
17564;SDS011;62994;52.126;5.596;2023-06-10T01:28:57;5.60;;;5.10;;
17564;SDS011;62994;52.126;5.596;2023-06-10T01:31:30;4.57;;;4.15;;
17564;SDS011;62994;52.126;5.596;2023-06-10T01:34:03;4.40;;;4.10;;
17564;SDS011;62994;52.126;5.596;2023-06-10T01:36:35;4.97;;;4.55;;
17564;SDS011;62994;52.126;5.596;2023-06-10T01:39:04;4.78;;;4.40;;
17564;SDS011;62994;52.126;5.596;2023-06-10T01:41:31;4.72;;;4.38;;
17564;SDS011;62994;52.126;5.596;2023-06-10T01:44:00;6.53;;;4.70;;
17564;SDS011;62994;52.126;5.596;2023-06-10T01:46:27;4.50;;;4.30;;
17564;SDS011;62994;52.126;5.596;2023-06-10T01:48:55;4.72;;;4.18;;
17564;SDS011;62994;52.126;5.596;2023-06-10T01:51:22;7.13;;;4.72;;
17564;SDS011;62994;52.126;5.596;2023-06-10T01:53:51;4.80;;;4.50;;
17564;SDS011;62994;52.126;5.596;2023-06-10T01:56:18;4.70;;;4.40;;
17564;SDS011;62994;52.126;5.596;2023-06-10T01:58:45;5.97;;;4.80;;
17564;SDS011;62994;52.126;5.596;2023-06-10T02:01:13;7.85;;;4.95;;
17564;SDS011;62994;52.126;5.596;2023-06-10T02:03:40;5.13;;;4.78;;
17564;SDS011;62994;52.126;5.596;2023-06-10T02:06:07;6.63;;;5.13;;
17564;SDS011;62994;52.126;5.596;2023-06-10T02:08:34;5.05;;;4.60;;
17564;SDS011;62994;52.126;5.596;2023-06-10T02:11:02;4.80;;;4.50;;
17564;SDS011;62994;52.126;5.596;2023-06-10T02:13:29;4.78;;;4.38;;
17564;SDS011;62994;52.126;5.596;2023-06-10T02:15:56;4.68;;;4.38;;
17564;SDS011;62994;52.126;5.596;2023-06-10T02:18:23;6.38;;;4.75;;
17564;SDS011;62994;52.126;5.596;2023-06-10T02:20:52;5.20;;;4.72;;
17564;SDS011;62994;52.126;5.596;2023-06-10T02:23:19;4.63;;;4.32;;
17564;SDS011;62994;52.126;5.596;2023-06-10T02:25:46;5.10;;;4.22;;
17564;SDS011;62994;52.126;5.596;2023-06-10T02:28:14;4.68;;;4.25;;
17564;SDS011;62994;52.126;5.596;2023-06-10T02:30:41;5.00;;;4.70;;
17564;SDS011;62994;52.126;5.596;2023-06-10T02:33:09;5.13;;;4.68;;
17564;SDS011;62994;52.126;5.596;2023-06-10T02:35:36;5.35;;;4.93;;
17564;SDS011;62994;52.126;5.596;2023-06-10T02:38:04;4.97;;;4.55;;
17564;SDS011;62994;52.126;5.596;2023-06-10T02:40:31;5.03;;;4.63;;
17564;SDS011;62994;52.126;5.596;2023-06-10T02:42:58;5.75;;;4.90;;
17564;SDS011;62994;52.126;5.596;2023-06-10T02:45:26;5.03;;;4.65;;
17564;SDS011;62994;52.126;5.596;2023-06-10T02:47:53;4.97;;;4.55;;
17564;SDS011;62994;52.126;5.596;2023-06-10T02:50:20;5.10;;;4.70;;
17564;SDS011;62994;52.126;5.596;2023-06-10T02:52:48;4.75;;;4.53;;
17564;SDS011;62994;52.126;5.596;2023-06-10T02:55:15;6.47;;;5.28;;
17564;SDS011;62994;52.126;5.596;2023-06-10T02:57:42;5.15;;;4.85;;
17564;SDS011;62994;52.126;5.596;2023-06-10T03:00:09;8.45;;;5.18;;
17564;SDS011;62994;52.126;5.596;2023-06-10T03:02:40;6.60;;;5.05;;
17564;SDS011;62994;52.126;5.596;2023-06-10T03:05:08;4.95;;;4.47;;
17564;SDS011;62994;52.126;5.596;2023-06-10T03:07:36;5.55;;;5.15;;
17564;SDS011;62994;52.126;5.596;2023-06-10T03:10:03;5.38;;;4.90;;
17564;SDS011;62994;52.126;5.596;2023-06-10T03:12:32;5.45;;;5.00;;
17564;SDS011;62994;52.126;5.596;2023-06-10T03:14:59;5.38;;;4.95;;
17564;SDS011;62994;52.126;5.596;2023-06-10T03:17:26;7.30;;;5.10;;
17564;SDS011;62994;52.126;5.596;2023-06-10T03:19:54;4.95;;;4.57;;
17564;SDS011;62994;52.126;5.596;2023-06-10T03:22:21;8.02;;;5.78;;
17564;SDS011;62994;52.126;5.596;2023-06-10T03:24:48;5.13;;;4.72;;
17564;SDS011;62994;52.126;5.596;2023-06-10T03:27:16;5.35;;;4.72;;
17564;SDS011;62994;52.126;5.596;2023-06-10T03:29:43;5.45;;;4.65;;
17564;SDS011;62994;52.126;5.596;2023-06-10T03:32:10;4.97;;;4.57;;
17564;SDS011;62994;52.126;5.596;2023-06-10T03:34:37;5.25;;;4.85;;
17564;SDS011;62994;52.126;5.596;2023-06-10T03:37:06;7.88;;;4.88;;
17564;SDS011;62994;52.126;5.596;2023-06-10T03:39:33;9.23;;;5.50;;
17564;SDS011;62994;52.126;5.596;2023-06-10T03:42:00;5.00;;;4.60;;
17564;SDS011;62994;52.126;5.596;2023-06-10T03:44:27;6.00;;;4.97;;
17564;SDS011;62994;52.126;5.596;2023-06-10T03:46:54;5.65;;;5.20;;
17564;SDS011;62994;52.126;5.596;2023-06-10T03:49:22;8.38;;;5.45;;
17564;SDS011;62994;52.126;5.596;2023-06-10T03:51:52;6.53;;;5.18;;
17564;SDS011;62994;52.126;5.596;2023-06-10T03:54:21;5.85;;;4.70;;
17564;SDS011;62994;52.126;5.596;2023-06-10T03:56:48;7.50;;;5.18;;
17564;SDS011;62994;52.126;5.596;2023-06-10T03:59:15;5.63;;;5.13;;
17564;SDS011;62994;52.126;5.596;2023-06-10T04:01:42;5.70;;;5.13;;
17564;SDS011;62994;52.126;5.596;2023-06-10T04:04:09;5.32;;;4.93;;
17564;SDS011;62994;52.126;5.596;2023-06-10T04:06:38;5.65;;;4.82;;
17564;SDS011;62994;52.126;5.596;2023-06-10T04:09:04;5.82;;;5.32;;
17564;SDS011;62994;52.126;5.596;2023-06-10T04:11:33;5.70;;;5.15;;
17564;SDS011;62994;52.126;5.596;2023-06-10T04:14:00;5.10;;;4.70;;
17564;SDS011;62994;52.126;5.596;2023-06-10T04:16:27;5.70;;;5.10;;
17564;SDS011;62994;52.126;5.596;2023-06-10T04:18:54;9.45;;;5.28;;
17564;SDS011;62994;52.126;5.596;2023-06-10T04:21:21;4.90;;;4.60;;
17564;SDS011;62994;52.126;5.596;2023-06-10T04:23:48;5.57;;;5.07;;
17564;SDS011;62994;52.126;5.596;2023-06-10T04:26:16;5.55;;;5.07;;
17564;SDS011;62994;52.126;5.596;2023-06-10T04:28:44;6.43;;;4.88;;
17564;SDS011;62994;52.126;5.596;2023-06-10T04:31:11;8.32;;;5.05;;
17564;SDS011;62994;52.126;5.596;2023-06-10T04:33:38;6.47;;;5.38;;
17564;SDS011;62994;52.126;5.596;2023-06-10T04:36:05;6.95;;;4.80;;
17564;SDS011;62994;52.126;5.596;2023-06-10T04:38:32;6.30;;;4.93;;
17564;SDS011;62994;52.126;5.596;2023-06-10T04:40:59;5.30;;;4.90;;
17564;SDS011;62994;52.126;5.596;2023-06-10T04:43:27;9.63;;;4.93;;
17564;SDS011;62994;52.126;5.596;2023-06-10T04:45:55;10.18;;;5.18;;
17564;SDS011;62994;52.126;5.596;2023-06-10T04:48:22;6.45;;;5.15;;
17564;SDS011;62994;52.126;5.596;2023-06-10T04:50:50;7.00;;;5.45;;
17564;SDS011;62994;52.126;5.596;2023-06-10T04:53:17;8.43;;;4.60;;
17564;SDS011;62994;52.126;5.596;2023-06-10T04:55:44;9.55;;;5.43;;
17564;SDS011;62994;52.126;5.596;2023-06-10T04:58:13;6.50;;;6.00;;
17564;SDS011;62994;52.126;5.596;2023-06-10T05:00:40;5.63;;;5.30;;
17564;SDS011;62994;52.126;5.596;2023-06-10T05:03:10;8.85;;;5.13;;
17564;SDS011;62994;52.126;5.596;2023-06-10T05:05:37;9.77;;;4.90;;
17564;SDS011;62994;52.126;5.596;2023-06-10T05:08:04;5.53;;;4.93;;
17564;SDS011;62994;52.126;5.596;2023-06-10T05:10:31;6.22;;;5.28;;
17564;SDS011;62994;52.126;5.596;2023-06-10T05:12:59;6.43;;;5.18;;
17564;SDS011;62994;52.126;5.596;2023-06-10T05:15:26;5.43;;;5.03;;
17564;SDS011;62994;52.126;5.596;2023-06-10T05:17:56;5.75;;;5.18;;
17564;SDS011;62994;52.126;5.596;2023-06-10T05:20:25;5.60;;;5.20;;
17564;SDS011;62994;52.126;5.596;2023-06-10T05:22:53;6.28;;;5.57;;
17564;SDS011;62994;52.126;5.596;2023-06-10T05:25:20;5.53;;;5.03;;
17564;SDS011;62994;52.126;5.596;2023-06-10T05:27:47;6.00;;;5.30;;
17564;SDS011;62994;52.126;5.596;2023-06-10T05:30:14;7.88;;;5.18;;
17564;SDS011;62994;52.126;5.596;2023-06-10T05:32:43;6.18;;;5.07;;
17564;SDS011;62994;52.126;5.596;2023-06-10T05:35:10;6.13;;;5.53;;
17564;SDS011;62994;52.126;5.596;2023-06-10T05:37:39;5.93;;;5.43;;
17564;SDS011;62994;52.126;5.596;2023-06-10T05:40:06;7.43;;;5.05;;
17564;SDS011;62994;52.126;5.596;2023-06-10T05:42:34;10.93;;;6.07;;
17564;SDS011;62994;52.126;5.596;2023-06-10T05:45:01;5.38;;;4.97;;
17564;SDS011;62994;52.126;5.596;2023-06-10T05:47:28;5.63;;;5.15;;
17564;SDS011;62994;52.126;5.596;2023-06-10T05:49:55;7.40;;;5.38;;
17564;SDS011;62994;52.126;5.596;2023-06-10T05:52:22;9.07;;;6.07;;
17564;SDS011;62994;52.126;5.596;2023-06-10T05:54:51;9.00;;;5.70;;
17564;SDS011;62994;52.126;5.596;2023-06-10T05:57:19;6.63;;;5.20;;
17564;SDS011;62994;52.126;5.596;2023-06-10T05:59:46;5.80;;;5.30;;
17564;SDS011;62994;52.126;5.596;2023-06-10T06:02:13;6.43;;;5.13;;
17564;SDS011;62994;52.126;5.596;2023-06-10T06:04:40;5.47;;;5.03;;
17564;SDS011;62994;52.126;5.596;2023-06-10T06:07:07;8.48;;;5.70;;
17564;SDS011;62994;52.126;5.596;2023-06-10T06:09:34;5.38;;;4.88;;
17564;SDS011;62994;52.126;5.596;2023-06-10T06:12:03;5.60;;;5.00;;
17564;SDS011;62994;52.126;5.596;2023-06-10T06:14:31;5.93;;;4.88;;
17564;SDS011;62994;52.126;5.596;2023-06-10T06:16:58;5.88;;;5.13;;
17564;SDS011;62994;52.126;5.596;2023-06-10T06:19:25;5.32;;;4.90;;
17564;SDS011;62994;52.126;5.596;2023-06-10T06:21:52;5.68;;;5.22;;
17564;SDS011;62994;52.126;5.596;2023-06-10T06:24:19;6.32;;;5.00;;
17564;SDS011;62994;52.126;5.596;2023-06-10T06:26:46;7.25;;;4.97;;
17564;SDS011;62994;52.126;5.596;2023-06-10T06:29:14;5.40;;;4.82;;
17564;SDS011;62994;52.126;5.596;2023-06-10T06:31:41;5.30;;;4.90;;
17564;SDS011;62994;52.126;5.596;2023-06-10T06:34:08;5.20;;;4.90;;
17564;SDS011;62994;52.126;5.596;2023-06-10T06:36:35;8.23;;;5.22;;
17564;SDS011;62994;52.126;5.596;2023-06-10T06:39:02;4.97;;;4.47;;
17564;SDS011;62994;52.126;5.596;2023-06-10T06:41:29;5.38;;;4.78;;
17564;SDS011;62994;52.126;5.596;2023-06-10T06:43:56;8.57;;;4.88;;
17564;SDS011;62994;52.126;5.596;2023-06-10T06:46:25;7.15;;;4.90;;
17564;SDS011;62994;52.126;5.596;2023-06-10T06:48:52;8.57;;;4.88;;
17564;SDS011;62994;52.126;5.596;2023-06-10T06:51:18;6.95;;;4.88;;
17564;SDS011;62994;52.126;5.596;2023-06-10T06:53:45;5.38;;;4.93;;
17564;SDS011;62994;52.126;5.596;2023-06-10T06:56:15;5.15;;;4.75;;
17564;SDS011;62994;52.126;5.596;2023-06-10T06:58:42;5.38;;;4.88;;
17564;SDS011;62994;52.126;5.596;2023-06-10T07:01:09;5.07;;;4.68;;
17564;SDS011;62994;52.126;5.596;2023-06-10T07:03:37;9.63;;;5.00;;
17564;SDS011;62994;52.126;5.596;2023-06-10T07:06:04;5.28;;;4.88;;
17564;SDS011;62994;52.126;5.596;2023-06-10T07:08:31;7.18;;;4.63;;
17564;SDS011;62994;52.126;5.596;2023-06-10T07:10:58;5.07;;;4.65;;
17564;SDS011;62994;52.126;5.596;2023-06-10T07:13:25;4.97;;;4.57;;
17564;SDS011;62994;52.126;5.596;2023-06-10T07:15:52;5.90;;;4.53;;
17564;SDS011;62994;52.126;5.596;2023-06-10T07:18:19;8.50;;;4.85;;
17564;SDS011;62994;52.126;5.596;2023-06-10T07:20:48;4.88;;;4.57;;
17564;SDS011;62994;52.126;5.596;2023-06-10T07:23:15;6.07;;;4.70;;
17564;SDS011;62994;52.126;5.596;2023-06-10T07:25:42;4.90;;;4.50;;
17564;SDS011;62994;52.126;5.596;2023-06-10T07:28:09;8.80;;;4.32;;
17564;SDS011;62994;52.126;5.596;2023-06-10T07:30:36;6.20;;;4.60;;
17564;SDS011;62994;52.126;5.596;2023-06-10T07:33:03;5.38;;;4.88;;
17564;SDS011;62994;52.126;5.596;2023-06-10T07:35:32;6.68;;;4.80;;
17564;SDS011;62994;52.126;5.596;2023-06-10T07:38:01;4.57;;;4.30;;
17564;SDS011;62994;52.126;5.596;2023-06-10T07:40:28;8.30;;;4.60;;
17564;SDS011;62994;52.126;5.596;2023-06-10T07:42:55;5.53;;;5.03;;
17564;SDS011;62994;52.126;5.596;2023-06-10T07:45:22;5.40;;;4.47;;
17564;SDS011;62994;52.126;5.596;2023-06-10T07:47:49;4.68;;;4.32;;
17564;SDS011;62994;52.126;5.596;2023-06-10T07:50:16;6.40;;;4.68;;
17564;SDS011;62994;52.126;5.596;2023-06-10T07:52:43;5.95;;;4.65;;
17564;SDS011;62994;52.126;5.596;2023-06-10T07:55:11;6.85;;;4.35;;
17564;SDS011;62994;52.126;5.596;2023-06-10T07:57:38;4.40;;;4.10;;
17564;SDS011;62994;52.126;5.596;2023-06-10T08:00:06;7.32;;;4.38;;
17564;SDS011;62994;52.126;5.596;2023-06-10T08:02:34;4.32;;;4.03;;
17564;SDS011;62994;52.126;5.596;2023-06-10T08:05:02;4.68;;;4.38;;
17564;SDS011;62994;52.126;5.596;2023-06-10T08:07:30;4.07;;;3.78;;
17564;SDS011;62994;52.126;5.596;2023-06-10T08:09:57;8.57;;;4.65;;
17564;SDS011;62994;52.126;5.596;2023-06-10T08:12:25;6.68;;;4.53;;
17564;SDS011;62994;52.126;5.596;2023-06-10T08:14:52;5.00;;;4.70;;
17564;SDS011;62994;52.126;5.596;2023-06-10T08:17:20;4.88;;;3.95;;
17564;SDS011;62994;52.126;5.596;2023-06-10T08:19:47;4.43;;;4.10;;
17564;SDS011;62994;52.126;5.596;2023-06-10T08:22:13;4.72;;;4.22;;
17564;SDS011;62994;52.126;5.596;2023-06-10T08:24:41;4.70;;;4.30;;
17564;SDS011;62994;52.126;5.596;2023-06-10T08:27:08;4.30;;;3.90;;
17564;SDS011;62994;52.126;5.596;2023-06-10T08:29:36;5.00;;;4.55;;
17564;SDS011;62994;52.126;5.596;2023-06-10T08:32:03;4.93;;;4.55;;
17564;SDS011;62994;52.126;5.596;2023-06-10T08:36:59;4.13;;;3.92;;
17564;SDS011;62994;52.126;5.596;2023-06-10T08:39:26;3.70;;;3.50;;
17564;SDS011;62994;52.126;5.596;2023-06-10T08:41:59;4.65;;;4.25;;
17564;SDS011;62994;52.126;5.596;2023-06-10T08:44:36;5.97;;;4.20;;
17564;SDS011;62994;52.126;5.596;2023-06-10T08:47:08;4.35;;;4.10;;
17564;SDS011;62994;52.126;5.596;2023-06-10T08:49:41;4.72;;;4.00;;
17564;SDS011;62994;52.126;5.596;2023-06-10T08:52:11;3.97;;;3.70;;
17564;SDS011;62994;52.126;5.596;2023-06-10T08:54:42;7.78;;;3.90;;
17564;SDS011;62994;52.126;5.596;2023-06-10T08:57:13;4.38;;;3.97;;
17564;SDS011;62994;52.126;5.596;2023-06-10T08:59:44;4.10;;;3.70;;
17564;SDS011;62994;52.126;5.596;2023-06-10T09:02:11;4.65;;;4.28;;
17564;SDS011;62994;52.126;5.596;2023-06-10T09:04:40;4.40;;;4.10;;
17564;SDS011;62994;52.126;5.596;2023-06-10T09:07:08;4.90;;;3.95;;
17564;SDS011;62994;52.126;5.596;2023-06-10T09:09:36;4.45;;;4.15;;
17564;SDS011;62994;52.126;5.596;2023-06-10T09:12:04;4.65;;;4.28;;
17564;SDS011;62994;52.126;5.596;2023-06-10T09:14:31;4.50;;;3.88;;
17564;SDS011;62994;52.126;5.596;2023-06-10T09:17:00;4.95;;;4.45;;
17564;SDS011;62994;52.126;5.596;2023-06-10T09:19:27;4.65;;;4.25;;
17564;SDS011;62994;52.126;5.596;2023-06-10T09:21:55;6.10;;;4.22;;
17564;SDS011;62994;52.126;5.596;2023-06-10T09:24:22;4.53;;;4.22;;
17564;SDS011;62994;52.126;5.596;2023-06-10T09:26:50;4.32;;;4.03;;
17564;SDS011;62994;52.126;5.596;2023-06-10T09:29:27;4.43;;;4.13;;
17564;SDS011;62994;52.126;5.596;2023-06-10T09:31:54;4.47;;;4.18;;
17564;SDS011;62994;52.126;5.596;2023-06-10T09:34:24;7.88;;;4.38;;
17564;SDS011;62994;52.126;5.596;2023-06-10T09:36:52;7.18;;;3.83;;
17564;SDS011;62994;52.126;5.596;2023-06-10T09:39:20;6.43;;;4.18;;
17564;SDS011;62994;52.126;5.596;2023-06-10T09:41:47;9.73;;;3.72;;
17564;SDS011;62994;52.126;5.596;2023-06-10T09:44:15;4.50;;;3.70;;
17564;SDS011;62994;52.126;5.596;2023-06-10T09:46:44;6.22;;;3.80;;
17564;SDS011;62994;52.126;5.596;2023-06-10T09:49:12;4.03;;;3.80;;
17564;SDS011;62994;52.126;5.596;2023-06-10T09:51:49;4.00;;;3.70;;
17564;SDS011;62994;52.126;5.596;2023-06-10T09:54:18;7.70;;;3.70;;
17564;SDS011;62994;52.126;5.596;2023-06-10T09:56:46;4.00;;;3.80;;
17564;SDS011;62994;52.126;5.596;2023-06-10T09:59:27;3.65;;;3.45;;
17564;SDS011;62994;52.126;5.596;2023-06-10T10:01:55;4.07;;;3.78;;
17564;SDS011;62994;52.126;5.596;2023-06-10T10:04:23;5.55;;;3.70;;
17564;SDS011;62994;52.126;5.596;2023-06-10T10:06:51;3.97;;;3.63;;
17564;SDS011;62994;52.126;5.596;2023-06-10T10:09:18;4.18;;;3.78;;
17564;SDS011;62994;52.126;5.596;2023-06-10T10:11:45;5.90;;;4.20;;
17564;SDS011;62994;52.126;5.596;2023-06-10T10:14:15;4.40;;;4.00;;
17564;SDS011;62994;52.126;5.596;2023-06-10T10:16:44;4.15;;;3.85;;
17564;SDS011;62994;52.126;5.596;2023-06-10T10:19:13;4.70;;;3.85;;
17564;SDS011;62994;52.126;5.596;2023-06-10T10:21:48;4.50;;;3.40;;
17564;SDS011;62994;52.126;5.596;2023-06-10T10:24:20;3.90;;;3.60;;
17564;SDS011;62994;52.126;5.596;2023-06-10T10:26:49;3.85;;;3.63;;
17564;SDS011;62994;52.126;5.596;2023-06-10T10:29:19;3.95;;;3.63;;
17564;SDS011;62994;52.126;5.596;2023-06-10T10:31:50;4.25;;;3.95;;
17564;SDS011;62994;52.126;5.596;2023-06-10T10:34:19;4.20;;;3.55;;
17564;SDS011;62994;52.126;5.596;2023-06-10T10:36:52;3.75;;;3.45;;
17564;SDS011;62994;52.126;5.596;2023-06-10T10:39:19;3.63;;;3.47;;
17564;SDS011;62994;52.126;5.596;2023-06-10T10:41:47;4.63;;;3.92;;
17564;SDS011;62994;52.126;5.596;2023-06-10T10:44:15;3.83;;;3.63;;
17564;SDS011;62994;52.126;5.596;2023-06-10T10:46:43;3.85;;;3.47;;
17564;SDS011;62994;52.126;5.596;2023-06-10T10:49:14;3.72;;;3.53;;
17564;SDS011;62994;52.126;5.596;2023-06-10T10:51:55;3.47;;;3.28;;
17564;SDS011;62994;52.126;5.596;2023-06-10T10:54:28;4.68;;;3.50;;
17564;SDS011;62994;52.126;5.596;2023-06-10T10:57:12;3.80;;;3.60;;
17564;SDS011;62994;52.126;5.596;2023-06-10T10:59:43;9.98;;;3.70;;
17564;SDS011;62994;52.126;5.596;2023-06-10T11:02:15;4.05;;;3.75;;
17564;SDS011;62994;52.126;5.596;2023-06-10T11:04:44;3.97;;;3.63;;
17564;SDS011;62994;52.126;5.596;2023-06-10T11:07:14;4.07;;;3.78;;
17564;SDS011;62994;52.126;5.596;2023-06-10T11:09:57;5.00;;;3.47;;
17564;SDS011;62994;52.126;5.596;2023-06-10T11:12:25;3.97;;;3.58;;
17564;SDS011;62994;52.126;5.596;2023-06-10T11:14:53;3.75;;;3.55;;
17564;SDS011;62994;52.126;5.596;2023-06-10T11:17:21;3.85;;;3.67;;
17564;SDS011;62994;52.126;5.596;2023-06-10T11:19:48;4.47;;;3.28;;
17564;SDS011;62994;52.126;5.596;2023-06-10T11:22:17;3.80;;;3.60;;
17564;SDS011;62994;52.126;5.596;2023-06-10T11:24:47;3.97;;;3.70;;
17564;SDS011;62994;52.126;5.596;2023-06-10T11:27:16;3.50;;;3.30;;
17564;SDS011;62994;52.126;5.596;2023-06-10T11:32:44;4.30;;;3.47;;
17564;SDS011;62994;52.126;5.596;2023-06-10T11:35:16;5.07;;;3.50;;
17564;SDS011;62994;52.126;5.596;2023-06-10T11:37:47;4.43;;;4.03;;
17564;SDS011;62994;52.126;5.596;2023-06-10T11:40:15;3.92;;;3.67;;
17564;SDS011;62994;52.126;5.596;2023-06-10T11:42:42;4.60;;;4.20;;
17564;SDS011;62994;52.126;5.596;2023-06-10T11:45:09;3.80;;;3.60;;
17564;SDS011;62994;52.126;5.596;2023-06-10T11:47:40;4.40;;;4.00;;
17564;SDS011;62994;52.126;5.596;2023-06-10T11:50:27;4.55;;;4.28;;
17564;SDS011;62994;52.126;5.596;2023-06-10T11:52:56;5.15;;;3.92;;
17564;SDS011;62994;52.126;5.596;2023-06-10T11:55:24;3.90;;;3.65;;
17564;SDS011;62994;52.126;5.596;2023-06-10T11:57:51;4.38;;;4.03;;
17564;SDS011;62994;52.126;5.596;2023-06-10T12:00:22;5.60;;;3.58;;
17564;SDS011;62994;52.126;5.596;2023-06-10T12:02:54;4.10;;;3.58;;
17564;SDS011;62994;52.126;5.596;2023-06-10T12:05:23;4.43;;;4.10;;
17564;SDS011;62994;52.126;5.596;2023-06-10T12:07:50;5.13;;;3.90;;
17564;SDS011;62994;52.126;5.596;2023-06-10T12:10:40;4.10;;;3.90;;
17564;SDS011;62994;52.126;5.596;2023-06-10T12:13:08;3.75;;;3.55;;
17564;SDS011;62994;52.126;5.596;2023-06-10T12:15:35;4.43;;;4.13;;
17564;SDS011;62994;52.126;5.596;2023-06-10T12:18:02;3.65;;;3.45;;
17564;SDS011;62994;52.126;5.596;2023-06-10T12:20:30;4.05;;;3.72;;
17564;SDS011;62994;52.126;5.596;2023-06-10T12:22:58;3.83;;;3.63;;
17564;SDS011;62994;52.126;5.596;2023-06-10T12:25:28;6.43;;;3.85;;
17564;SDS011;62994;52.126;5.596;2023-06-10T12:27:56;4.03;;;3.75;;
17564;SDS011;62994;52.126;5.596;2023-06-10T12:30:24;4.07;;;3.85;;
17564;SDS011;62994;52.126;5.596;2023-06-10T12:32:52;5.03;;;4.65;;
17564;SDS011;62994;52.126;5.596;2023-06-10T12:35:20;4.30;;;3.90;;
17564;SDS011;62994;52.126;5.596;2023-06-10T12:37:56;5.18;;;3.92;;
17564;SDS011;62994;52.126;5.596;2023-06-10T12:40:27;6.07;;;3.65;;
17564;SDS011;62994;52.126;5.596;2023-06-10T12:42:56;4.15;;;3.92;;
17564;SDS011;62994;52.126;5.596;2023-06-10T12:45:27;4.68;;;4.28;;
17564;SDS011;62994;52.126;5.596;2023-06-10T12:48:03;3.55;;;3.35;;
17564;SDS011;62994;52.126;5.596;2023-06-10T12:50:31;6.40;;;4.00;;
17564;SDS011;62994;52.126;5.596;2023-06-10T12:52:59;4.13;;;3.92;;
17564;SDS011;62994;52.126;5.596;2023-06-10T12:55:27;3.97;;;3.80;;
17564;SDS011;62994;52.126;5.596;2023-06-10T12:57:55;5.47;;;4.00;;
17564;SDS011;62994;52.126;5.596;2023-06-10T13:00:22;5.05;;;3.90;;
17564;SDS011;62994;52.126;5.596;2023-06-10T13:02:51;4.60;;;4.20;;
17564;SDS011;62994;52.126;5.596;2023-06-10T13:05:18;4.45;;;4.13;;
17564;SDS011;62994;52.126;5.596;2023-06-10T13:07:46;4.50;;;4.20;;
17564;SDS011;62994;52.126;5.596;2023-06-10T13:10:13;4.10;;;3.75;;
17564;SDS011;62994;52.126;5.596;2023-06-10T13:12:42;4.95;;;4.07;;
17564;SDS011;62994;52.126;5.596;2023-06-10T13:15:10;4.82;;;4.43;;
17564;SDS011;62994;52.126;5.596;2023-06-10T13:17:37;3.75;;;3.65;;
17564;SDS011;62994;52.126;5.596;2023-06-10T13:20:06;3.80;;;3.60;;
17564;SDS011;62994;52.126;5.596;2023-06-10T13:22:34;5.35;;;3.95;;
17564;SDS011;62994;52.126;5.596;2023-06-10T13:25:01;4.22;;;3.97;;
17564;SDS011;62994;52.126;5.596;2023-06-10T13:27:32;4.07;;;3.88;;
17564;SDS011;62994;52.126;5.596;2023-06-10T13:30:01;5.30;;;4.13;;
17564;SDS011;62994;52.126;5.596;2023-06-10T13:32:29;4.43;;;4.22;;
17564;SDS011;62994;52.126;5.596;2023-06-10T13:34:56;4.07;;;3.88;;
17564;SDS011;62994;52.126;5.596;2023-06-10T13:37:23;5.15;;;3.60;;
17564;SDS011;62994;52.126;5.596;2023-06-10T13:39:50;4.43;;;4.13;;
17564;SDS011;62994;52.126;5.596;2023-06-10T13:42:17;3.80;;;3.60;;
17564;SDS011;62994;52.126;5.596;2023-06-10T13:44:45;3.92;;;3.70;;
17564;SDS011;62994;52.126;5.596;2023-06-10T13:47:14;4.13;;;3.92;;
17564;SDS011;62994;52.126;5.596;2023-06-10T13:49:41;3.70;;;3.50;;
17564;SDS011;62994;52.126;5.596;2023-06-10T13:52:08;4.10;;;3.90;;
17564;SDS011;62994;52.126;5.596;2023-06-10T13:54:35;3.85;;;3.65;;
17564;SDS011;62994;52.126;5.596;2023-06-10T13:57:02;5.80;;;3.97;;
17564;SDS011;62994;52.126;5.596;2023-06-10T13:59:29;4.25;;;4.05;;
17564;SDS011;62994;52.126;5.596;2023-06-10T14:01:56;4.00;;;3.80;;
17564;SDS011;62994;52.126;5.596;2023-06-10T14:04:24;3.72;;;3.53;;
17564;SDS011;62994;52.126;5.596;2023-06-10T14:06:51;4.35;;;4.15;;
17564;SDS011;62994;52.126;5.596;2023-06-10T14:09:18;4.60;;;4.20;;
17564;SDS011;62994;52.126;5.596;2023-06-10T14:11:45;3.90;;;3.70;;
17564;SDS011;62994;52.126;5.596;2023-06-10T14:14:13;4.30;;;3.90;;
17564;SDS011;62994;52.126;5.596;2023-06-10T14:16:40;4.28;;;4.07;;
17564;SDS011;62994;52.126;5.596;2023-06-10T14:19:07;4.32;;;4.00;;
17564;SDS011;62994;52.126;5.596;2023-06-10T14:21:36;4.13;;;3.92;;
17564;SDS011;62994;52.126;5.596;2023-06-10T14:24:03;4.00;;;3.60;;
17564;SDS011;62994;52.126;5.596;2023-06-10T14:26:30;4.03;;;3.83;;
17564;SDS011;62994;52.126;5.596;2023-06-10T14:28:58;4.10;;;3.80;;
17564;SDS011;62994;52.126;5.596;2023-06-10T14:31:25;4.18;;;3.88;;
17564;SDS011;62994;52.126;5.596;2023-06-10T14:33:52;4.22;;;4.03;;
17564;SDS011;62994;52.126;5.596;2023-06-10T14:36:18;4.15;;;3.95;;
17564;SDS011;62994;52.126;5.596;2023-06-10T14:38:47;3.97;;;3.78;;
17564;SDS011;62994;52.126;5.596;2023-06-10T14:41:14;4.28;;;3.80;;
17564;SDS011;62994;52.126;5.596;2023-06-10T14:43:41;4.15;;;3.95;;
17564;SDS011;62994;52.126;5.596;2023-06-10T14:46:08;3.90;;;3.60;;
17564;SDS011;62994;52.126;5.596;2023-06-10T14:48:35;4.38;;;4.18;;
17564;SDS011;62994;52.126;5.596;2023-06-10T14:51:05;4.60;;;4.20;;
17564;SDS011;62994;52.126;5.596;2023-06-10T14:53:32;4.45;;;4.15;;
17564;SDS011;62994;52.126;5.596;2023-06-10T14:56:01;4.20;;;3.90;;
17564;SDS011;62994;52.126;5.596;2023-06-10T14:58:28;4.00;;;3.80;;
17564;SDS011;62994;52.126;5.596;2023-06-10T15:00:55;3.97;;;3.50;;